sensor_id;sensor_type;location;lat;lon;timestamp;P1;durP1;ratioP1;P2;durP2;ratioP2
50631;SDS011;49583;45.590;-122.498;2022-08-24T00:01:40;3.00;;;0.90;;
50631;SDS011;49583;45.590;-122.498;2022-08-24T00:03:52;1.00;;;0.70;;
50631;SDS011;49583;45.590;-122.498;2022-08-24T00:06:15;0.70;;;0.60;;
50631;SDS011;49583;45.590;-122.498;2022-08-24T00:08:40;1.40;;;0.80;;
50631;SDS011;49583;45.590;-122.498;2022-08-24T00:11:21;3.50;;;0.60;;
50631;SDS011;49583;45.590;-122.498;2022-08-24T00:13:50;2.60;;;0.90;;
50631;SDS011;49583;45.590;-122.498;2022-08-24T00:16:18;1.00;;;0.60;;
50631;SDS011;49583;45.590;-122.498;2022-08-24T00:18:48;4.20;;;1.20;;
50631;SDS011;49583;45.590;-122.498;2022-08-24T00:23:32;4.00;;;0.90;;
50631;SDS011;49583;45.590;-122.498;2022-08-24T00:25:52;1.50;;;1.10;;
50631;SDS011;49583;45.590;-122.498;2022-08-24T00:28:12;1.80;;;0.70;;
50631;SDS011;49583;45.590;-122.498;2022-08-24T00:30:30;3.60;;;0.90;;
50631;SDS011;49583;45.590;-122.498;2022-08-24T00:32:37;2.40;;;0.80;;
50631;SDS011;49583;45.590;-122.498;2022-08-24T00:34:53;1.90;;;0.80;;
50631;SDS011;49583;45.590;-122.498;2022-08-24T00:37:03;2.20;;;1.10;;
50631;SDS011;49583;45.590;-122.498;2022-08-24T00:39:24;3.10;;;1.00;;
50631;SDS011;49583;45.590;-122.498;2022-08-24T00:41:51;3.30;;;0.70;;
50631;SDS011;49583;45.590;-122.498;2022-08-24T00:44:11;1.80;;;1.10;;
50631;SDS011;49583;45.590;-122.498;2022-08-24T00:56:59;5.50;;;0.80;;
50631;SDS011;49583;45.590;-122.498;2022-08-24T01:02:53;4.10;;;1.10;;
50631;SDS011;49583;45.590;-122.498;2022-08-24T01:07:58;1.80;;;1.30;;
50631;SDS011;49583;45.590;-122.498;2022-08-24T01:10:23;4.00;;;1.10;;
50631;SDS011;49583;45.590;-122.498;2022-08-24T01:12:39;2.00;;;0.90;;
50631;SDS011;49583;45.590;-122.498;2022-08-24T01:15:25;3.00;;;1.20;;
50631;SDS011;49583;45.590;-122.498;2022-08-24T01:17:39;4.10;;;1.10;;
50631;SDS011;49583;45.590;-122.498;2022-08-24T01:20:09;1.80;;;1.10;;
50631;SDS011;49583;45.590;-122.498;2022-08-24T01:25:16;1.20;;;1.00;;
50631;SDS011;49583;45.590;-122.498;2022-08-24T01:27:37;2.70;;;1.00;;
50631;SDS011;49583;45.590;-122.498;2022-08-24T01:30:11;3.30;;;1.00;;
50631;SDS011;49583;45.590;-122.498;2022-08-24T01:32:23;1.90;;;1.20;;
50631;SDS011;49583;45.590;-122.498;2022-08-24T01:34:35;0.80;;;0.80;;
50631;SDS011;49583;45.590;-122.498;2022-08-24T01:37:25;3.40;;;0.80;;
50631;SDS011;49583;45.590;-122.498;2022-08-24T01:40:06;2.90;;;1.20;;
50631;SDS011;49583;45.590;-122.498;2022-08-24T01:45:32;1.10;;;0.90;;
50631;SDS011;49583;45.590;-122.498;2022-08-24T01:48:01;2.80;;;1.20;;
50631;SDS011;49583;45.590;-122.498;2022-08-24T01:50:14;1.00;;;1.00;;
50631;SDS011;49583;45.590;-122.498;2022-08-24T01:52:24;2.00;;;1.10;;
50631;SDS011;49583;45.590;-122.498;2022-08-24T01:55:11;3.80;;;1.00;;
50631;SDS011;49583;45.590;-122.498;2022-08-24T01:57:50;2.10;;;1.10;;
50631;SDS011;49583;45.590;-122.498;2022-08-24T02:00:09;1.10;;;1.00;;
50631;SDS011;49583;45.590;-122.498;2022-08-24T02:03:05;2.10;;;1.10;;
50631;SDS011;49583;45.590;-122.498;2022-08-24T02:05:31;2.00;;;0.70;;
50631;SDS011;49583;45.590;-122.498;2022-08-24T02:07:45;1.80;;;1.00;;
50631;SDS011;49583;45.590;-122.498;2022-08-24T02:10:02;2.40;;;1.00;;
50631;SDS011;49583;45.590;-122.498;2022-08-24T02:12:17;1.50;;;0.90;;
50631;SDS011;49583;45.590;-122.498;2022-08-24T02:14:42;4.90;;;1.10;;
50631;SDS011;49583;45.590;-122.498;2022-08-24T02:20:41;1.20;;;1.00;;
50631;SDS011;49583;45.590;-122.498;2022-08-24T02:22:52;4.90;;;0.90;;
50631;SDS011;49583;45.590;-122.498;2022-08-24T02:25:42;1.30;;;1.00;;
50631;SDS011;49583;45.590;-122.498;2022-08-24T02:27:49;1.20;;;0.80;;
50631;SDS011;49583;45.590;-122.498;2022-08-24T02:30:06;3.10;;;1.00;;
50631;SDS011;49583;45.590;-122.498;2022-08-24T02:32:39;3.60;;;1.20;;
50631;SDS011;49583;45.590;-122.498;2022-08-24T02:35:20;5.10;;;0.80;;
50631;SDS011;49583;45.590;-122.498;2022-08-24T02:37:30;3.10;;;1.00;;
50631;SDS011;49583;45.590;-122.498;2022-08-24T02:40:00;2.20;;;1.10;;
50631;SDS011;49583;45.590;-122.498;2022-08-24T02:42:31;3.40;;;0.90;;
50631;SDS011;49583;45.590;-122.498;2022-08-24T02:45:01;1.80;;;0.90;;
50631;SDS011;49583;45.590;-122.498;2022-08-24T02:47:42;3.30;;;1.00;;
50631;SDS011;49583;45.590;-122.498;2022-08-24T02:50:18;1.90;;;0.80;;
50631;SDS011;49583;45.590;-122.498;2022-08-24T02:52:40;1.00;;;0.80;;
50631;SDS011;49583;45.590;-122.498;2022-08-24T02:54:47;1.70;;;1.10;;
50631;SDS011;49583;45.590;-122.498;2022-08-24T02:57:24;3.20;;;0.90;;
50631;SDS011;49583;45.590;-122.498;2022-08-24T02:59:35;1.40;;;1.00;;
50631;SDS011;49583;45.590;-122.498;2022-08-24T03:01:54;1.00;;;0.60;;
50631;SDS011;49583;45.590;-122.498;2022-08-24T03:04:31;1.70;;;0.90;;
50631;SDS011;49583;45.590;-122.498;2022-08-24T03:09:29;2.90;;;0.80;;
50631;SDS011;49583;45.590;-122.498;2022-08-24T03:11:43;2.30;;;0.70;;
50631;SDS011;49583;45.590;-122.498;2022-08-24T03:14:03;3.50;;;0.90;;
50631;SDS011;49583;45.590;-122.498;2022-08-24T03:16:32;1.20;;;0.70;;
50631;SDS011;49583;45.590;-122.498;2022-08-24T03:19:08;1.00;;;0.60;;
50631;SDS011;49583;45.590;-122.498;2022-08-24T03:21:18;1.90;;;0.60;;
50631;SDS011;49583;45.590;-122.498;2022-08-24T03:24:08;3.60;;;0.70;;
50631;SDS011;49583;45.590;-122.498;2022-08-24T03:26:47;2.40;;;0.80;;
50631;SDS011;49583;45.590;-122.498;2022-08-24T03:32:13;3.20;;;0.90;;
50631;SDS011;49583;45.590;-122.498;2022-08-24T03:34:24;4.10;;;1.40;;
50631;SDS011;49583;45.590;-122.498;2022-08-24T03:38:53;1.70;;;0.90;;
50631;SDS011;49583;45.590;-122.498;2022-08-24T03:41:07;2.10;;;0.70;;
50631;SDS011;49583;45.590;-122.498;2022-08-24T03:43:28;3.30;;;1.00;;
50631;SDS011;49583;45.590;-122.498;2022-08-24T03:48:31;2.50;;;0.70;;
50631;SDS011;49583;45.590;-122.498;2022-08-24T03:50:37;2.40;;;1.00;;
50631;SDS011;49583;45.590;-122.498;2022-08-24T03:52:59;1.60;;;0.80;;
50631;SDS011;49583;45.590;-122.498;2022-08-24T03:55:07;0.90;;;0.80;;
50631;SDS011;49583;45.590;-122.498;2022-08-24T03:57:17;0.80;;;0.60;;
50631;SDS011;49583;45.590;-122.498;2022-08-24T03:59:24;2.70;;;0.60;;
50631;SDS011;49583;45.590;-122.498;2022-08-24T04:01:51;2.90;;;0.80;;
50631;SDS011;49583;45.590;-122.498;2022-08-24T04:04:18;1.50;;;0.60;;
50631;SDS011;49583;45.590;-122.498;2022-08-24T04:06:28;1.80;;;0.80;;
50631;SDS011;49583;45.590;-122.498;2022-08-24T04:09:00;1.90;;;0.70;;
50631;SDS011;49583;45.590;-122.498;2022-08-24T04:11:23;2.20;;;0.80;;
50631;SDS011;49583;45.590;-122.498;2022-08-24T04:14:17;1.20;;;0.70;;
50631;SDS011;49583;45.590;-122.498;2022-08-24T04:17:06;0.90;;;0.50;;
50631;SDS011;49583;45.590;-122.498;2022-08-24T04:19:16;1.00;;;0.80;;
50631;SDS011;49583;45.590;-122.498;2022-08-24T04:21:26;4.40;;;0.70;;
50631;SDS011;49583;45.590;-122.498;2022-08-24T04:23:40;1.20;;;0.60;;
50631;SDS011;49583;45.590;-122.498;2022-08-24T04:25:52;1.60;;;0.70;;
50631;SDS011;49583;45.590;-122.498;2022-08-24T04:27:58;0.90;;;0.60;;
50631;SDS011;49583;45.590;-122.498;2022-08-24T04:30:08;1.00;;;0.50;;
50631;SDS011;49583;45.590;-122.498;2022-08-24T04:33:14;1.80;;;0.70;;
50631;SDS011;49583;45.590;-122.498;2022-08-24T04:35:27;1.40;;;0.70;;
50631;SDS011;49583;45.590;-122.498;2022-08-24T04:37:48;2.20;;;0.60;;
50631;SDS011;49583;45.590;-122.498;2022-08-24T04:40:08;2.30;;;0.90;;
50631;SDS011;49583;45.590;-122.498;2022-08-24T04:42:38;2.20;;;0.80;;
50631;SDS011;49583;45.590;-122.498;2022-08-24T04:44:53;2.70;;;0.80;;
50631;SDS011;49583;45.590;-122.498;2022-08-24T04:47:03;2.90;;;1.00;;
50631;SDS011;49583;45.590;-122.498;2022-08-24T04:51:51;5.70;;;1.40;;
50631;SDS011;49583;45.590;-122.498;2022-08-24T04:54:19;1.60;;;1.10;;
50631;SDS011;49583;45.590;-122.498;2022-08-24T04:56:53;1.30;;;0.90;;
50631;SDS011;49583;45.590;-122.498;2022-08-24T04:59:03;3.00;;;0.90;;
50631;SDS011;49583;45.590;-122.498;2022-08-24T05:01:15;3.30;;;1.10;;
50631;SDS011;49583;45.590;-122.498;2022-08-24T05:03:42;4.00;;;0.90;;
50631;SDS011;49583;45.590;-122.498;2022-08-24T05:06:13;2.30;;;0.70;;
50631;SDS011;49583;45.590;-122.498;2022-08-24T05:08:21;3.10;;;0.80;;
50631;SDS011;49583;45.590;-122.498;2022-08-24T05:10:36;1.40;;;0.80;;
50631;SDS011;49583;45.590;-122.498;2022-08-24T05:13:24;1.00;;;0.70;;
50631;SDS011;49583;45.590;-122.498;2022-08-24T05:15:48;1.20;;;0.70;;
50631;SDS011;49583;45.590;-122.498;2022-08-24T05:17:58;1.80;;;0.80;;
50631;SDS011;49583;45.590;-122.498;2022-08-24T05:20:17;2.00;;;0.70;;
50631;SDS011;49583;45.590;-122.498;2022-08-24T05:22:27;1.80;;;0.80;;
50631;SDS011;49583;45.590;-122.498;2022-08-24T05:27:15;2.40;;;0.60;;
50631;SDS011;49583;45.590;-122.498;2022-08-24T05:29:51;3.10;;;0.90;;
50631;SDS011;49583;45.590;-122.498;2022-08-24T05:32:05;6.20;;;1.00;;
50631;SDS011;49583;45.590;-122.498;2022-08-24T05:34:15;8.70;;;1.20;;
50631;SDS011;49583;45.590;-122.498;2022-08-24T05:37:01;3.00;;;0.90;;
50631;SDS011;49583;45.590;-122.498;2022-08-24T05:39:40;2.40;;;0.80;;
50631;SDS011;49583;45.590;-122.498;2022-08-24T05:41:50;4.80;;;1.10;;
50631;SDS011;49583;45.590;-122.498;2022-08-24T05:44:12;1.30;;;1.00;;
50631;SDS011;49583;45.590;-122.498;2022-08-24T05:46:27;5.50;;;0.80;;
50631;SDS011;49583;45.590;-122.498;2022-08-24T05:48:40;1.50;;;0.70;;
50631;SDS011;49583;45.590;-122.498;2022-08-24T05:51:08;5.20;;;1.30;;
50631;SDS011;49583;45.590;-122.498;2022-08-24T05:53:27;3.60;;;1.20;;
50631;SDS011;49583;45.590;-122.498;2022-08-24T05:55:42;3.10;;;1.10;;
50631;SDS011;49583;45.590;-122.498;2022-08-24T05:58:10;2.60;;;0.70;;
50631;SDS011;49583;45.590;-122.498;2022-08-24T06:00:27;2.40;;;0.80;;
50631;SDS011;49583;45.590;-122.498;2022-08-24T06:02:36;2.00;;;0.60;;
50631;SDS011;49583;45.590;-122.498;2022-08-24T06:05:13;1.20;;;0.70;;
50631;SDS011;49583;45.590;-122.498;2022-08-24T06:07:24;2.00;;;0.80;;
50631;SDS011;49583;45.590;-122.498;2022-08-24T06:09:38;0.60;;;0.60;;
50631;SDS011;49583;45.590;-122.498;2022-08-24T06:11:52;0.70;;;0.50;;
50631;SDS011;49583;45.590;-122.498;2022-08-24T06:14:04;2.90;;;0.80;;
50631;SDS011;49583;45.590;-122.498;2022-08-24T06:16:25;2.70;;;0.70;;
50631;SDS011;49583;45.590;-122.498;2022-08-24T06:18:45;1.90;;;0.70;;
50631;SDS011;49583;45.590;-122.498;2022-08-24T06:20:55;1.30;;;0.90;;
50631;SDS011;49583;45.590;-122.498;2022-08-24T06:23:08;0.80;;;0.70;;
50631;SDS011;49583;45.590;-122.498;2022-08-24T06:25:19;3.20;;;0.70;;
50631;SDS011;49583;45.590;-122.498;2022-08-24T06:27:55;0.80;;;0.70;;
50631;SDS011;49583;45.590;-122.498;2022-08-24T06:30:24;1.30;;;0.70;;
50631;SDS011;49583;45.590;-122.498;2022-08-24T06:32:58;1.20;;;0.70;;
50631;SDS011;49583;45.590;-122.498;2022-08-24T06:35:24;2.10;;;0.90;;
50631;SDS011;49583;45.590;-122.498;2022-08-24T06:37:52;3.80;;;0.90;;
50631;SDS011;49583;45.590;-122.498;2022-08-24T06:40:00;2.00;;;0.80;;
50631;SDS011;49583;45.590;-122.498;2022-08-24T06:45:33;1.60;;;0.90;;
50631;SDS011;49583;45.590;-122.498;2022-08-24T06:47:40;5.40;;;1.00;;
50631;SDS011;49583;45.590;-122.498;2022-08-24T06:50:13;3.70;;;1.20;;
50631;SDS011;49583;45.590;-122.498;2022-08-24T06:52:56;2.60;;;1.10;;
50631;SDS011;49583;45.590;-122.498;2022-08-24T06:57:57;2.40;;;0.90;;
50631;SDS011;49583;45.590;-122.498;2022-08-24T07:00:25;2.90;;;0.80;;
50631;SDS011;49583;45.590;-122.498;2022-08-24T07:03:37;1.20;;;0.80;;
50631;SDS011;49583;45.590;-122.498;2022-08-24T07:06:02;1.70;;;0.80;;
50631;SDS011;49583;45.590;-122.498;2022-08-24T07:08:24;3.40;;;1.10;;
50631;SDS011;49583;45.590;-122.498;2022-08-24T07:13:08;2.10;;;0.70;;
50631;SDS011;49583;45.590;-122.498;2022-08-24T07:15:46;1.20;;;0.80;;
50631;SDS011;49583;45.590;-122.498;2022-08-24T07:18:14;1.80;;;0.90;;
50631;SDS011;49583;45.590;-122.498;2022-08-24T07:20:32;1.30;;;0.50;;
50631;SDS011;49583;45.590;-122.498;2022-08-24T07:23:00;1.20;;;1.00;;
50631;SDS011;49583;45.590;-122.498;2022-08-24T07:25:11;3.40;;;0.90;;
50631;SDS011;49583;45.590;-122.498;2022-08-24T07:27:18;1.70;;;0.80;;
50631;SDS011;49583;45.590;-122.498;2022-08-24T07:29:28;0.80;;;0.80;;
50631;SDS011;49583;45.590;-122.498;2022-08-24T07:34:43;0.90;;;0.80;;
50631;SDS011;49583;45.590;-122.498;2022-08-24T07:36:54;1.00;;;0.80;;
50631;SDS011;49583;45.590;-122.498;2022-08-24T07:39:15;1.50;;;0.90;;
50631;SDS011;49583;45.590;-122.498;2022-08-24T07:41:56;2.90;;;1.00;;
50631;SDS011;49583;45.590;-122.498;2022-08-24T07:44:27;0.80;;;0.70;;
50631;SDS011;49583;45.590;-122.498;2022-08-24T07:46:35;4.20;;;1.10;;
50631;SDS011;49583;45.590;-122.498;2022-08-24T07:49:24;5.70;;;1.30;;
50631;SDS011;49583;45.590;-122.498;2022-08-24T07:51:44;3.70;;;1.00;;
50631;SDS011;49583;45.590;-122.498;2022-08-24T07:53:57;1.60;;;1.00;;
50631;SDS011;49583;45.590;-122.498;2022-08-24T07:58:40;2.50;;;1.00;;
50631;SDS011;49583;45.590;-122.498;2022-08-24T08:00:47;1.40;;;0.80;;
50631;SDS011;49583;45.590;-122.498;2022-08-24T08:03:16;1.40;;;1.00;;
50631;SDS011;49583;45.590;-122.498;2022-08-24T08:08:08;1.30;;;0.90;;
50631;SDS011;49583;45.590;-122.498;2022-08-24T08:10:35;1.60;;;0.90;;
50631;SDS011;49583;45.590;-122.498;2022-08-24T08:12:52;1.50;;;0.80;;
50631;SDS011;49583;45.590;-122.498;2022-08-24T08:15:18;3.70;;;1.30;;
50631;SDS011;49583;45.590;-122.498;2022-08-24T08:17:43;2.80;;;1.20;;
50631;SDS011;49583;45.590;-122.498;2022-08-24T08:20:03;2.30;;;1.20;;
50631;SDS011;49583;45.590;-122.498;2022-08-24T08:22:22;4.30;;;1.30;;
50631;SDS011;49583;45.590;-122.498;2022-08-24T08:25:05;1.00;;;0.90;;
50631;SDS011;49583;45.590;-122.498;2022-08-24T08:27:32;1.60;;;1.10;;
50631;SDS011;49583;45.590;-122.498;2022-08-24T08:29:43;1.70;;;1.20;;
50631;SDS011;49583;45.590;-122.498;2022-08-24T08:31:55;1.60;;;0.80;;
50631;SDS011;49583;45.590;-122.498;2022-08-24T08:34:16;2.50;;;1.10;;
50631;SDS011;49583;45.590;-122.498;2022-08-24T08:36:24;2.70;;;1.20;;
50631;SDS011;49583;45.590;-122.498;2022-08-24T08:38:34;1.10;;;1.00;;
50631;SDS011;49583;45.590;-122.498;2022-08-24T08:40:51;1.70;;;1.10;;
50631;SDS011;49583;45.590;-122.498;2022-08-24T08:54:13;2.00;;;0.90;;
50631;SDS011;49583;45.590;-122.498;2022-08-24T08:56:53;2.10;;;0.90;;
50631;SDS011;49583;45.590;-122.498;2022-08-24T09:11:58;1.30;;;1.20;;
50631;SDS011;49583;45.590;-122.498;2022-08-24T09:29:16;2.70;;;1.30;;
50631;SDS011;49583;45.590;-122.498;2022-08-24T09:31:47;3.00;;;1.50;;
50631;SDS011;49583;45.590;-122.498;2022-08-24T09:34:08;3.20;;;1.30;;
50631;SDS011;49583;45.590;-122.498;2022-08-24T09:36:51;1.40;;;1.30;;
50631;SDS011;49583;45.590;-122.498;2022-08-24T09:44:58;2.30;;;1.40;;
50631;SDS011;49583;45.590;-122.498;2022-08-24T09:53:09;3.00;;;1.70;;
50631;SDS011;49583;45.590;-122.498;2022-08-24T09:56:00;1.50;;;1.40;;
50631;SDS011;49583;45.590;-122.498;2022-08-24T10:06:06;2.00;;;1.80;;
50631;SDS011;49583;45.590;-122.498;2022-08-24T10:14:36;1.90;;;1.70;;
50631;SDS011;49583;45.590;-122.498;2022-08-24T10:33:26;1.70;;;1.40;;
50631;SDS011;49583;45.590;-122.498;2022-08-24T10:41:22;4.20;;;1.90;;
50631;SDS011;49583;45.590;-122.498;2022-08-24T10:44:03;2.40;;;1.70;;
50631;SDS011;49583;45.590;-122.498;2022-08-24T10:46:49;2.10;;;1.70;;
50631;SDS011;49583;45.590;-122.498;2022-08-24T10:49:16;2.30;;;2.10;;
50631;SDS011;49583;45.590;-122.498;2022-08-24T10:54:02;3.60;;;2.10;;
50631;SDS011;49583;45.590;-122.498;2022-08-24T10:56:16;3.70;;;2.00;;
50631;SDS011;49583;45.590;-122.498;2022-08-24T11:03:25;2.50;;;2.10;;
50631;SDS011;49583;45.590;-122.498;2022-08-24T11:05:38;3.80;;;2.20;;
50631;SDS011;49583;45.590;-122.498;2022-08-24T11:07:58;2.80;;;2.00;;
50631;SDS011;49583;45.590;-122.498;2022-08-24T11:10:38;4.10;;;2.70;;
50631;SDS011;49583;45.590;-122.498;2022-08-24T11:12:59;2.80;;;1.90;;
50631;SDS011;49583;45.590;-122.498;2022-08-24T11:15:34;2.10;;;1.90;;
50631;SDS011;49583;45.590;-122.498;2022-08-24T11:18:18;3.30;;;2.10;;
50631;SDS011;49583;45.590;-122.498;2022-08-24T11:20:39;2.90;;;2.30;;
50631;SDS011;49583;45.590;-122.498;2022-08-24T11:23:01;3.30;;;2.10;;
50631;SDS011;49583;45.590;-122.498;2022-08-24T11:39:34;9.30;;;2.90;;
50631;SDS011;49583;45.590;-122.498;2022-08-24T11:46:54;7.40;;;3.60;;
50631;SDS011;49583;45.590;-122.498;2022-08-24T11:49:14;5.10;;;2.70;;
50631;SDS011;49583;45.590;-122.498;2022-08-24T11:56:58;6.20;;;3.40;;
50631;SDS011;49583;45.590;-122.498;2022-08-24T12:02:34;5.30;;;3.20;;
50631;SDS011;49583;45.590;-122.498;2022-08-24T12:07:10;5.30;;;3.10;;
50631;SDS011;49583;45.590;-122.498;2022-08-24T12:14:51;3.70;;;3.40;;
50631;SDS011;49583;45.590;-122.498;2022-08-24T12:19:45;3.80;;;3.40;;
50631;SDS011;49583;45.590;-122.498;2022-08-24T12:22:19;3.80;;;3.50;;
50631;SDS011;49583;45.590;-122.498;2022-08-24T12:24:57;4.60;;;4.20;;
50631;SDS011;49583;45.590;-122.498;2022-08-24T12:32:31;5.00;;;3.60;;
50631;SDS011;49583;45.590;-122.498;2022-08-24T12:37:41;4.30;;;3.90;;
50631;SDS011;49583;45.590;-122.498;2022-08-24T12:43:13;4.20;;;3.80;;
50631;SDS011;49583;45.590;-122.498;2022-08-24T12:45:27;5.30;;;4.00;;
50631;SDS011;49583;45.590;-122.498;2022-08-24T12:58:24;3.90;;;3.50;;
50631;SDS011;49583;45.590;-122.498;2022-08-24T13:01:05;5.70;;;4.60;;
50631;SDS011;49583;45.590;-122.498;2022-08-24T13:03:49;4.90;;;4.50;;
50631;SDS011;49583;45.590;-122.498;2022-08-24T13:05:49;5.60;;;4.10;;
50631;SDS011;49583;45.590;-122.498;2022-08-24T13:08:08;6.90;;;4.30;;
50631;SDS011;49583;45.590;-122.498;2022-08-24T13:12:52;4.90;;;4.10;;
50631;SDS011;49583;45.590;-122.498;2022-08-24T13:15:20;4.80;;;4.30;;
50631;SDS011;49583;45.590;-122.498;2022-08-24T13:17:42;6.10;;;4.20;;
50631;SDS011;49583;45.590;-122.498;2022-08-24T13:25:21;6.10;;;3.90;;
50631;SDS011;49583;45.590;-122.498;2022-08-24T13:28:00;4.50;;;4.20;;
50631;SDS011;49583;45.590;-122.498;2022-08-24T13:30:25;5.70;;;4.20;;
50631;SDS011;49583;45.590;-122.498;2022-08-24T13:32:45;5.30;;;4.50;;
50631;SDS011;49583;45.590;-122.498;2022-08-24T13:41:44;4.90;;;4.20;;
50631;SDS011;49583;45.590;-122.498;2022-08-24T13:43:39;5.80;;;4.30;;
50631;SDS011;49583;45.590;-122.498;2022-08-24T13:46:13;5.00;;;4.50;;
50631;SDS011;49583;45.590;-122.498;2022-08-24T13:57:44;4.80;;;4.40;;
50631;SDS011;49583;45.590;-122.498;2022-08-24T14:00:30;5.70;;;4.30;;
50631;SDS011;49583;45.590;-122.498;2022-08-24T14:05:26;4.70;;;4.20;;
50631;SDS011;49583;45.590;-122.498;2022-08-24T14:07:50;4.20;;;3.90;;
50631;SDS011;49583;45.590;-122.498;2022-08-24T14:13:00;5.30;;;4.00;;
50631;SDS011;49583;45.590;-122.498;2022-08-24T14:21:14;6.30;;;4.30;;
50631;SDS011;49583;45.590;-122.498;2022-08-24T14:34:30;4.80;;;3.70;;
50631;SDS011;49583;45.590;-122.498;2022-08-24T14:42:56;5.40;;;3.30;;
50631;SDS011;49583;45.590;-122.498;2022-08-24T14:45:34;5.70;;;3.40;;
50631;SDS011;49583;45.590;-122.498;2022-08-24T14:51:04;3.40;;;2.80;;
50631;SDS011;49583;45.590;-122.498;2022-08-24T15:01:57;8.50;;;3.30;;
50631;SDS011;49583;45.590;-122.498;2022-08-24T15:05:01;6.40;;;3.40;;
50631;SDS011;49583;45.590;-122.498;2022-08-24T15:07:36;5.20;;;2.90;;
50631;SDS011;49583;45.590;-122.498;2022-08-24T15:10:10;4.80;;;3.10;;
50631;SDS011;49583;45.590;-122.498;2022-08-24T15:14:57;3.70;;;3.10;;
50631;SDS011;49583;45.590;-122.498;2022-08-24T15:17:34;6.50;;;3.10;;
50631;SDS011;49583;45.590;-122.498;2022-08-24T15:22:25;3.90;;;2.70;;
50631;SDS011;49583;45.590;-122.498;2022-08-24T15:25:03;3.20;;;2.40;;
50631;SDS011;49583;45.590;-122.498;2022-08-24T15:30:19;6.30;;;3.40;;
50631;SDS011;49583;45.590;-122.498;2022-08-24T15:32:45;3.70;;;2.90;;
50631;SDS011;49583;45.590;-122.498;2022-08-24T15:34:58;4.80;;;3.20;;
50631;SDS011;49583;45.590;-122.498;2022-08-24T15:37:05;4.70;;;2.90;;
50631;SDS011;49583;45.590;-122.498;2022-08-24T15:39:23;3.20;;;2.90;;
50631;SDS011;49583;45.590;-122.498;2022-08-24T15:46:12;2.60;;;2.40;;
50631;SDS011;49583;45.590;-122.498;2022-08-24T15:48:27;6.50;;;2.40;;
50631;SDS011;49583;45.590;-122.498;2022-08-24T15:50:55;3.50;;;2.00;;
50631;SDS011;49583;45.590;-122.498;2022-08-24T15:58:42;2.60;;;2.40;;
50631;SDS011;49583;45.590;-122.498;2022-08-24T16:00:45;4.80;;;2.80;;
50631;SDS011;49583;45.590;-122.498;2022-08-24T16:03:24;2.90;;;2.30;;
50631;SDS011;49583;45.590;-122.498;2022-08-24T16:05:55;4.70;;;2.20;;
50631;SDS011;49583;45.590;-122.498;2022-08-24T16:08:25;3.10;;;2.50;;
50631;SDS011;49583;45.590;-122.498;2022-08-24T16:11:05;3.80;;;2.60;;
50631;SDS011;49583;45.590;-122.498;2022-08-24T16:13:44;2.70;;;2.40;;
50631;SDS011;49583;45.590;-122.498;2022-08-24T16:16:14;4.10;;;2.70;;
50631;SDS011;49583;45.590;-122.498;2022-08-24T16:18:49;3.40;;;2.50;;
50631;SDS011;49583;45.590;-122.498;2022-08-24T16:21:37;3.80;;;2.50;;
50631;SDS011;49583;45.590;-122.498;2022-08-24T16:26:53;3.60;;;2.10;;
50631;SDS011;49583;45.590;-122.498;2022-08-24T16:31:43;2.60;;;2.00;;
50631;SDS011;49583;45.590;-122.498;2022-08-24T16:34:23;2.40;;;2.10;;
50631;SDS011;49583;45.590;-122.498;2022-08-24T16:36:40;2.80;;;2.60;;
50631;SDS011;49583;45.590;-122.498;2022-08-24T16:38:49;2.90;;;2.50;;
50631;SDS011;49583;45.590;-122.498;2022-08-24T16:41:16;3.00;;;1.90;;
50631;SDS011;49583;45.590;-122.498;2022-08-24T16:43:36;3.00;;;2.70;;
50631;SDS011;49583;45.590;-122.498;2022-08-24T16:45:56;5.60;;;2.90;;
50631;SDS011;49583;45.590;-122.498;2022-08-24T16:48:08;2.70;;;2.40;;
50631;SDS011;49583;45.590;-122.498;2022-08-24T16:50:18;4.50;;;2.50;;
50631;SDS011;49583;45.590;-122.498;2022-08-24T16:52:42;3.20;;;2.50;;
50631;SDS011;49583;45.590;-122.498;2022-08-24T16:54:50;3.30;;;2.30;;
50631;SDS011;49583;45.590;-122.498;2022-08-24T16:56:57;3.50;;;2.40;;
50631;SDS011;49583;45.590;-122.498;2022-08-24T16:59:09;2.60;;;2.20;;
50631;SDS011;49583;45.590;-122.498;2022-08-24T17:01:26;5.50;;;2.30;;
50631;SDS011;49583;45.590;-122.498;2022-08-24T17:03:36;3.20;;;2.00;;
50631;SDS011;49583;45.590;-122.498;2022-08-24T17:05:43;5.70;;;2.10;;
50631;SDS011;49583;45.590;-122.498;2022-08-24T17:07:51;3.20;;;2.60;;
50631;SDS011;49583;45.590;-122.498;2022-08-24T17:10:02;3.10;;;2.30;;
50631;SDS011;49583;45.590;-122.498;2022-08-24T17:12:12;2.20;;;1.90;;
50631;SDS011;49583;45.590;-122.498;2022-08-24T17:14:31;3.80;;;2.10;;
50631;SDS011;49583;45.590;-122.498;2022-08-24T17:16:41;3.30;;;2.30;;
50631;SDS011;49583;45.590;-122.498;2022-08-24T17:18:51;2.80;;;2.20;;
50631;SDS011;49583;45.590;-122.498;2022-08-24T17:20:58;2.50;;;2.10;;
50631;SDS011;49583;45.590;-122.498;2022-08-24T17:23:15;2.50;;;1.80;;
50631;SDS011;49583;45.590;-122.498;2022-08-24T17:25:37;3.30;;;2.10;;
50631;SDS011;49583;45.590;-122.498;2022-08-24T17:27:47;3.10;;;2.40;;
50631;SDS011;49583;45.590;-122.498;2022-08-24T17:30:16;2.90;;;2.00;;
50631;SDS011;49583;45.590;-122.498;2022-08-24T17:32:31;4.00;;;2.70;;
50631;SDS011;49583;45.590;-122.498;2022-08-24T17:34:58;3.60;;;2.00;;
50631;SDS011;49583;45.590;-122.498;2022-08-24T17:37:23;2.20;;;1.90;;
50631;SDS011;49583;45.590;-122.498;2022-08-24T17:39:34;2.40;;;1.80;;
50631;SDS011;49583;45.590;-122.498;2022-08-24T17:41:41;1.90;;;1.70;;
50631;SDS011;49583;45.590;-122.498;2022-08-24T17:50:09;4.00;;;1.90;;
50631;SDS011;49583;45.590;-122.498;2022-08-24T17:55:35;5.40;;;2.10;;
50631;SDS011;49583;45.590;-122.498;2022-08-24T17:57:51;5.30;;;2.20;;
50631;SDS011;49583;45.590;-122.498;2022-08-24T18:00:13;3.10;;;2.20;;
50631;SDS011;49583;45.590;-122.498;2022-08-24T18:05:00;2.40;;;2.00;;
50631;SDS011;49583;45.590;-122.498;2022-08-24T18:07:08;2.10;;;1.80;;
50631;SDS011;49583;45.590;-122.498;2022-08-24T18:10:00;3.40;;;2.00;;
50631;SDS011;49583;45.590;-122.498;2022-08-24T18:14:50;3.10;;;2.00;;
50631;SDS011;49583;45.590;-122.498;2022-08-24T18:19:49;2.70;;;2.40;;
50631;SDS011;49583;45.590;-122.498;2022-08-24T18:24:29;4.00;;;2.10;;
50631;SDS011;49583;45.590;-122.498;2022-08-24T18:26:37;3.80;;;2.30;;
50631;SDS011;49583;45.590;-122.498;2022-08-24T18:28:51;2.80;;;1.90;;
50631;SDS011;49583;45.590;-122.498;2022-08-24T18:31:11;4.10;;;2.00;;
50631;SDS011;49583;45.590;-122.498;2022-08-24T18:33:19;2.50;;;2.30;;
50631;SDS011;49583;45.590;-122.498;2022-08-24T18:37:45;2.90;;;2.60;;
50631;SDS011;49583;45.590;-122.498;2022-08-24T18:39:53;2.80;;;2.50;;
50631;SDS011;49583;45.590;-122.498;2022-08-24T18:42:08;4.20;;;2.30;;
50631;SDS011;49583;45.590;-122.498;2022-08-24T18:44:17;4.20;;;2.20;;
50631;SDS011;49583;45.590;-122.498;2022-08-24T18:46:45;2.90;;;2.70;;
50631;SDS011;49583;45.590;-122.498;2022-08-24T18:49:25;2.50;;;2.30;;
50631;SDS011;49583;45.590;-122.498;2022-08-24T18:51:36;2.60;;;2.00;;
50631;SDS011;49583;45.590;-122.498;2022-08-24T18:54:11;3.50;;;2.20;;
50631;SDS011;49583;45.590;-122.498;2022-08-24T18:56:25;3.60;;;2.70;;
50631;SDS011;49583;45.590;-122.498;2022-08-24T18:58:32;5.50;;;2.60;;
50631;SDS011;49583;45.590;-122.498;2022-08-24T19:00:39;7.30;;;2.70;;
50631;SDS011;49583;45.590;-122.498;2022-08-24T19:03:03;3.40;;;2.10;;